QPS weather

Campo Fontenelle Airport
Pirassununga, São Paulo, Brazil

Public forecast

Using degrees Celsius for public forecast. Weather courtesy of forecast.io.

Current aviation weather report (METAR) for Campo Fontenelle Airport

Retrieved 2019/12/06 10:00 UTC (10 minutes ago):

SBYS 061000Z 34006KT 5000 BR BKN009 OVC030 20/20 Q1012

Aviation forecast (TAF) for Campo Fontenelle Airport

Retrieved 2019/12/06 06:33 UTC (4 hours ago):

TAF TAF SBYS 060400Z 0606/0618 01008KT 9999 SCT027 TN19/0608Z TX28/0617Z BECMG 0611/0613 35008KT SCT030 BECMG 0614/0616 33010KT SCT030 FEW035TCU RMK PFY